Time;durP1;ratioP1;P1;durP2;ratioP2;P2;SDS_P1;SDS_P2;PMS_P1;PMS_P2;Temp;Humidity;BMP_temperature;BMP_pressure;BME280_temperature;BME280_humidity;BME280_pressure;Samples;Min_cycle;Max_cycle;Signal;HPM_P1;HPM_P2
2021/10/04 00:00:16;;;;;;;2.73;2.30;;;17.50;99.90;;;;;;5033829;28;20468;-76
2021/10/04 00:02:44;;;;;;;2.70;2.13;;;17.50;99.90;;;;;;5033042;28;20416;-77
2021/10/04 00:05:13;;;;;;;1.60;1.50;;;17.50;99.90;;;;;;5033249;28;20898;-78
2021/10/04 00:07:41;;;;;;;2.20;1.90;;;17.50;99.90;;;;;;5033454;28;20411;-78
2021/10/04 00:10:15;;;;;;;2.67;2.20;;;17.50;99.90;;;;;;5034269;28;20437;-78
2021/10/04 00:12:44;;;;;;;2.20;2.00;;;17.50;99.90;;;;;;5035377;28;20634;-77
2021/10/04 00:15:16;;;;;;;2.17;1.90;;;17.50;99.90;;;;;;5036902;28;20395;-77
2021/10/04 00:17:45;;;;;;;3.80;2.40;;;17.50;99.90;;;;;;5040818;28;20403;-78
2021/10/04 00:20:16;;;;;;;3.13;2.50;;;17.50;99.90;;;;;;5037301;28;20461;-76
2021/10/04 00:22:45;;;;;;;4.13;1.50;;;17.40;99.90;;;;;;5037268;28;20410;-78
2021/10/04 00:25:15;;;;;;;4.20;3.70;;;17.50;99.90;;;;;;5036383;28;20503;-77
2021/10/04 00:27:43;;;;;;;2.70;2.30;;;17.50;99.90;;;;;;5062833;22;20461;-80
2021/10/04 00:30:12;;;;;;;1.90;1.70;;;17.40;99.90;;;;;;5039529;28;20444;-80
2021/10/04 00:32:43;;;;;;;1.67;1.40;;;17.50;99.90;;;;;;5038749;28;20414;-78
2021/10/04 00:35:13;;;;;;;1.90;1.70;;;17.50;99.90;;;;;;5040671;28;20402;-81
2021/10/04 00:37:42;;;;;;;1.80;1.63;;;17.40;99.90;;;;;;5046317;28;20509;-79
2021/10/04 00:40:18;;;;;;;1.93;1.57;;;17.40;99.90;;;;;;5047824;28;20441;-79
2021/10/04 00:42:46;;;;;;;4.37;1.30;;;17.30;99.90;;;;;;5049065;28;20426;-79
2021/10/04 00:45:15;;;;;;;2.13;1.80;;;17.30;99.90;;;;;;5049571;28;20464;-80
2021/10/04 00:47:43;;;;;;;3.63;2.70;;;17.30;99.90;;;;;;5045688;28;20454;-79
2021/10/04 00:50:13;;;;;;;2.20;1.67;;;17.30;99.90;;;;;;5043596;28;20449;-80
2021/10/04 00:52:42;;;;;;;1.80;1.43;;;17.30;99.90;;;;;;5044502;28;20391;-80
2021/10/04 00:55:12;;;;;;;2.57;2.10;;;17.30;99.90;;;;;;5044513;28;20447;-79
2021/10/04 00:57:42;;;;;;;2.63;2.43;;;17.30;99.90;;;;;;5050061;28;20441;-80
2021/10/04 01:00:12;;;;;;;1.50;1.37;;;17.20;99.90;;;;;;5052466;28;20434;-79
2021/10/04 01:02:40;;;;;;;1.97;1.80;;;17.20;99.90;;;;;;5047740;28;20432;-79
2021/10/04 01:05:10;;;;;;;1.80;1.50;;;17.30;99.90;;;;;;5044104;28;20439;-79
2021/10/04 01:07:39;;;;;;;4.73;1.97;;;17.20;99.90;;;;;;5041658;28;20459;-78
2021/10/04 01:10:09;;;;;;;1.70;1.33;;;17.20;99.90;;;;;;5040566;28;20428;-80
2021/10/04 01:12:38;;;;;;;1.43;1.10;;;17.20;99.90;;;;;;5042030;28;20434;-79
2021/10/04 01:15:09;;;;;;;2.47;1.90;;;17.20;99.90;;;;;;5041432;28;20438;-79
2021/10/04 01:17:38;;;;;;;4.23;3.13;;;17.10;99.90;;;;;;5040644;28;20984;-80
2021/10/04 01:20:13;;;;;;;2.13;1.80;;;17.00;99.90;;;;;;5041118;28;20459;-80
2021/10/04 01:22:41;;;;;;;2.93;1.97;;;17.00;99.90;;;;;;5040122;28;20401;-80
2021/10/04 01:25:12;;;;;;;1.80;1.13;;;17.10;99.90;;;;;;5041528;28;20398;-80
2021/10/04 01:27:41;;;;;;;2.70;2.00;;;17.10;99.90;;;;;;5040876;28;20431;-80
2021/10/04 01:30:11;;;;;;;1.73;1.63;;;17.00;99.90;;;;;;5040246;28;20463;-80
2021/10/04 01:32:40;;;;;;;2.40;1.57;;;16.90;99.90;;;;;;5039614;28;20452;-79
2021/10/04 01:35:09;;;;;;;3.87;2.77;;;16.90;99.90;;;;;;5041022;28;20407;-80
2021/10/04 01:37:38;;;;;;;2.07;1.50;;;16.90;99.90;;;;;;5038845;28;20455;-79
2021/10/04 01:40:08;;;;;;;1.40;1.10;;;16.90;99.90;;;;;;5038708;28;20453;-81
2021/10/04 01:42:38;;;;;;;1.67;1.23;;;16.80;99.90;;;;;;5038130;28;20407;-79
2021/10/04 01:45:10;;;;;;;2.67;1.40;;;16.70;99.90;;;;;;5039304;28;20414;-79
2021/10/04 01:47:38;;;;;;;1.23;1.13;;;16.70;99.90;;;;;;5039112;28;20422;-79
2021/10/04 01:50:08;;;;;;;1.10;0.80;;;16.70;99.90;;;;;;5038352;28;20418;-80
2021/10/04 01:52:39;;;;;;;1.50;1.07;;;16.70;99.90;;;;;;5039396;28;20507;-79
2021/10/04 01:55:09;;;;;;;2.30;1.47;;;16.70;99.90;;;;;;5037929;28;20494;-79
2021/10/04 01:57:38;;;;;;;1.67;1.10;;;16.60;99.90;;;;;;5038334;28;20535;-79
2021/10/04 02:00:10;;;;;;;1.57;1.47;;;16.50;99.90;;;;;;5037242;28;20498;-78
2021/10/04 02:02:41;;;;;;;1.37;1.00;;;16.50;99.90;;;;;;5036489;28;20463;-78
2021/10/04 02:05:11;;;;;;;1.47;0.80;;;16.40;99.90;;;;;;5038273;28;20479;-79
2021/10/04 02:07:41;;;;;;;1.50;0.90;;;16.40;99.90;;;;;;5036648;28;20525;-80
2021/10/04 02:10:14;;;;;;;2.13;1.67;;;16.30;99.90;;;;;;5036977;28;20383;-80
2021/10/04 02:12:42;;;;;;;1.67;1.57;;;16.30;99.90;;;;;;5037843;28;20679;-78
2021/10/04 02:15:11;;;;;;;1.10;0.70;;;16.30;99.90;;;;;;5036432;28;20499;-79
2021/10/04 02:17:40;;;;;;;1.77;1.43;;;16.30;99.90;;;;;;5036181;28;20472;-79
2021/10/04 02:20:12;;;;;;;1.93;1.43;;;16.20;99.90;;;;;;5053678;28;20411;-79
2021/10/04 02:22:43;;;;;;;0.90;0.50;;;16.20;99.90;;;;;;5053520;28;20432;-77
2021/10/04 02:25:12;;;;;;;1.00;0.80;;;16.20;99.90;;;;;;5055837;28;20410;-78
2021/10/04 02:27:41;;;;;;;4.03;0.90;;;16.20;99.90;;;;;;5055079;28;20430;-80
2021/10/04 02:30:11;;;;;;;2.77;0.90;;;16.10;99.90;;;;;;5055284;28;20428;-80
2021/10/04 02:32:39;;;;;;;1.00;0.63;;;16.00;99.90;;;;;;5050687;28;20519;-79
2021/10/04 02:35:09;;;;;;;2.33;1.40;;;16.00;99.90;;;;;;5043575;28;20490;-80
2021/10/04 02:37:37;;;;;;;1.60;1.50;;;16.00;99.90;;;;;;5042003;28;20472;-80
2021/10/04 02:40:10;;;;;;;0.90;0.70;;;15.90;99.90;;;;;;5042763;28;20435;-81
2021/10/04 02:42:39;;;;;;;0.90;0.50;;;15.90;99.90;;;;;;5044263;28;20958;-80
2021/10/04 02:45:08;;;;;;;0.90;0.50;;;15.90;99.90;;;;;;5042133;28;20407;-78
2021/10/04 02:47:37;;;;;;;0.90;0.60;;;15.90;99.90;;;;;;5044327;28;20553;-79
2021/10/04 02:50:07;;;;;;;1.00;0.90;;;15.80;99.90;;;;;;5051438;28;20387;-78
2021/10/04 02:52:36;;;;;;;1.00;0.60;;;15.80;99.90;;;;;;5051829;28;20398;-79
2021/10/04 02:55:04;;;;;;;0.90;0.50;;;15.70;99.90;;;;;;5050143;28;20494;-79
2021/10/04 02:57:34;;;;;;;1.00;0.70;;;15.70;99.90;;;;;;5050822;28;20448;-80
2021/10/04 03:00:04;;;;;;;0.80;0.50;;;15.60;99.90;;;;;;5047990;28;20497;-79
2021/10/04 03:02:32;;;;;;;0.90;0.60;;;15.60;99.90;;;;;;5036829;28;20488;-79
2021/10/04 03:05:00;;;;;;;0.83;0.50;;;15.60;99.90;;;;;;5043154;28;20425;-78
2021/10/04 03:07:28;;;;;;;0.90;0.50;;;15.60;99.90;;;;;;5047889;28;20501;-79
2021/10/04 03:09:57;;;;;;;1.00;0.60;;;15.60;99.90;;;;;;5055180;28;20432;-78
2021/10/04 03:12:25;;;;;;;1.27;0.60;;;15.60;99.90;;;;;;5055449;28;20399;-78
2021/10/04 03:14:58;;;;;;;1.23;1.10;;;15.60;99.90;;;;;;5057372;28;20403;-78
2021/10/04 03:17:26;;;;;;;0.90;0.60;;;15.60;99.90;;;;;;5056631;28;20471;-78
2021/10/04 03:19:55;;;;;;;0.80;0.50;;;15.60;99.90;;;;;;5055054;28;20466;-80
2021/10/04 03:22:24;;;;;;;0.90;0.50;;;15.50;99.90;;;;;;5038588;28;20430;-80
2021/10/04 03:24:52;;;;;;;1.00;0.50;;;15.40;99.90;;;;;;5043098;28;20411;-78
2021/10/04 03:27:20;;;;;;;1.23;1.00;;;15.40;99.90;;;;;;5047244;28;20496;-80
2021/10/04 03:29:48;;;;;;;0.80;0.40;;;15.40;99.90;;;;;;5041274;28;20459;-80
2021/10/04 03:32:18;;;;;;;0.90;0.50;;;15.30;99.90;;;;;;5041508;28;20395;-79
2021/10/04 03:34:46;;;;;;;0.80;0.50;;;15.30;99.90;;;;;;5042127;28;20403;-79
2021/10/04 03:37:16;;;;;;;0.90;0.40;;;15.20;99.90;;;;;;5040713;28;20836;-79
2021/10/04 03:39:46;;;;;;;0.90;0.50;;;15.20;99.90;;;;;;5041587;28;20428;-80
2021/10/04 03:42:14;;;;;;;0.80;0.47;;;15.10;99.90;;;;;;5040929;28;20452;-78
2021/10/04 03:44:43;;;;;;;1.13;1.03;;;15.00;99.90;;;;;;5041677;28;20405;-79
2021/10/04 03:47:11;;;;;;;0.90;0.50;;;15.00;99.90;;;;;;5039656;28;20446;-78
2021/10/04 03:49:40;;;;;;;1.00;0.50;;;14.90;99.90;;;;;;5039801;28;20422;-79
2021/10/04 03:52:08;;;;;;;0.80;0.50;;;14.90;99.90;;;;;;5039529;28;20440;-80
2021/10/04 03:54:37;;;;;;;0.90;0.50;;;14.90;99.90;;;;;;5039021;28;20432;-80
2021/10/04 03:57:05;;;;;;;0.90;0.50;;;14.80;99.90;;;;;;5038438;28;20970;-81
2021/10/04 03:59:34;;;;;;;0.80;0.50;;;14.70;99.90;;;;;;5041195;28;20412;-80
2021/10/04 04:02:03;;;;;;;0.90;0.50;;;14.70;99.90;;;;;;5040338;28;20435;-78
2021/10/04 04:04:32;;;;;;;0.80;0.47;;;14.60;99.90;;;;;;5046464;28;20435;-79
2021/10/04 04:07:01;;;;;;;1.00;0.67;;;14.50;99.90;;;;;;5049078;28;20419;-80
2021/10/04 04:09:29;;;;;;;0.80;0.40;;;14.40;99.90;;;;;;5039594;28;20414;-79
2021/10/04 04:11:58;;;;;;;0.80;0.50;;;14.40;99.90;;;;;;5041396;28;20401;-78
2021/10/04 04:14:26;;;;;;;1.00;0.80;;;14.40;99.90;;;;;;5041194;28;20464;-80
2021/10/04 04:16:54;;;;;;;0.80;0.50;;;14.30;99.90;;;;;;5041071;28;20483;-80
2021/10/04 04:19:22;;;;;;;0.90;0.73;;;14.30;99.90;;;;;;5039910;28;20428;-80
2021/10/04 04:21:50;;;;;;;0.80;0.50;;;14.40;99.90;;;;;;5040741;28;20445;-80
2021/10/04 04:24:20;;;;;;;0.80;0.40;;;14.40;99.90;;;;;;5041423;28;20498;-80
2021/10/04 04:26:50;;;;;;;0.80;0.40;;;14.40;99.90;;;;;;5045453;28;20459;-80
2021/10/04 04:29:18;;;;;;;0.80;0.50;;;14.40;99.90;;;;;;5044739;28;20432;-78
2021/10/04 04:31:46;;;;;;;0.80;0.40;;;14.40;99.90;;;;;;5041820;28;20414;-78
2021/10/04 04:34:14;;;;;;;0.80;0.50;;;14.40;99.90;;;;;;5044192;28;20934;-79
2021/10/04 04:36:43;;;;;;;0.80;0.50;;;14.30;99.90;;;;;;5044532;28;20498;-79
2021/10/04 04:39:11;;;;;;;0.80;0.50;;;14.30;99.90;;;;;;5044835;28;20394;-80
2021/10/04 04:41:40;;;;;;;0.80;0.40;;;14.30;99.90;;;;;;5045584;28;20434;-78
2021/10/04 04:44:09;;;;;;;0.80;0.50;;;14.30;99.90;;;;;;5044197;28;20950;-79
2021/10/04 04:46:37;;;;;;;0.83;0.50;;;14.40;99.90;;;;;;5044628;28;20422;-80
2021/10/04 04:49:05;;;;;;;0.80;0.50;;;14.30;99.90;;;;;;5045117;28;20420;-80
2021/10/04 04:51:33;;;;;;;0.90;0.50;;;14.30;99.90;;;;;;5044114;28;20440;-79
2021/10/04 04:54:01;;;;;;;1.00;0.63;;;14.30;99.90;;;;;;5043835;28;20423;-79
2021/10/04 04:56:30;;;;;;;0.90;0.50;;;14.30;99.90;;;;;;5046422;28;20426;-78
2021/10/04 04:58:59;;;;;;;0.80;0.50;;;14.20;99.90;;;;;;5046030;28;20493;-78
2021/10/04 05:01:27;;;;;;;0.80;0.50;;;14.20;99.90;;;;;;5048541;28;20427;-78
2021/10/04 05:03:56;;;;;;;0.90;0.50;;;14.10;99.90;;;;;;5046049;28;20436;-80
2021/10/04 05:06:24;;;;;;;0.80;0.50;;;14.10;99.90;;;;;;5044796;28;20438;-80
2021/10/04 05:08:52;;;;;;;0.80;0.50;;;14.10;99.90;;;;;;5043651;28;20531;-80
2021/10/04 05:11:20;;;;;;;1.43;0.70;;;14.10;99.90;;;;;;5045196;28;20399;-80
2021/10/04 05:13:49;;;;;;;0.80;0.50;;;14.10;99.90;;;;;;5042410;28;20880;-78
2021/10/04 05:16:19;;;;;;;1.53;0.60;;;14.10;99.90;;;;;;5035077;28;20447;-77
2021/10/04 05:18:47;;;;;;;0.80;0.40;;;14.10;99.90;;;;;;5043398;28;20420;-77
2021/10/04 05:21:16;;;;;;;0.90;0.50;;;14.10;99.90;;;;;;5053015;28;20443;-76
2021/10/04 05:23:45;;;;;;;0.80;0.50;;;14.10;99.90;;;;;;5060644;28;20537;-76
2021/10/04 05:26:17;;;;;;;0.90;0.80;;;14.10;99.90;;;;;;5053197;28;20757;-76
2021/10/04 05:28:45;;;;;;;0.80;0.50;;;14.00;99.90;;;;;;5050094;28;20405;-79
2021/10/04 05:31:13;;;;;;;0.80;0.50;;;14.10;99.90;;;;;;5061474;28;20933;-79
2021/10/04 05:33:43;;;;;;;1.27;0.70;;;14.00;99.90;;;;;;5048421;28;20515;-79
2021/10/04 05:36:12;;;;;;;0.90;0.50;;;14.10;99.90;;;;;;5052009;28;20433;-79
2021/10/04 05:38:40;;;;;;;0.80;0.50;;;14.10;99.90;;;;;;5035441;28;20464;-79
2021/10/04 05:41:09;;;;;;;0.80;0.50;;;14.10;99.90;;;;;;5055193;28;20436;-77
2021/10/04 05:43:37;;;;;;;0.83;0.47;;;14.20;99.90;;;;;;5053246;28;20472;-80
2021/10/04 05:46:06;;;;;;;0.80;0.40;;;14.30;99.90;;;;;;5037562;28;20456;-78
2021/10/04 05:48:35;;;;;;;0.80;0.50;;;14.30;99.90;;;;;;5031764;28;20407;-79
2021/10/04 05:51:06;;;;;;;0.80;0.50;;;14.30;99.90;;;;;;5042962;28;20432;-78
2021/10/04 05:53:34;;;;;;;0.80;0.50;;;14.20;99.90;;;;;;5054651;28;20493;-78
2021/10/04 05:56:02;;;;;;;1.17;1.00;;;14.10;99.90;;;;;;5049068;28;20455;-78
2021/10/04 05:58:30;;;;;;;0.80;0.50;;;14.10;99.90;;;;;;5035385;28;20867;-78
2021/10/04 06:00:58;;;;;;;0.90;0.50;;;14.20;99.90;;;;;;5038278;28;20454;-78
2021/10/04 06:03:27;;;;;;;1.00;0.60;;;14.30;99.90;;;;;;5061139;28;20469;-78
2021/10/04 06:05:55;;;;;;;1.10;0.90;;;14.30;99.90;;;;;;5061860;28;20432;-78
2021/10/04 06:08:25;;;;;;;1.23;0.60;;;14.20;99.90;;;;;;5061550;28;20402;-80
2021/10/04 06:10:53;;;;;;;0.80;0.40;;;14.20;99.90;;;;;;5061417;28;20393;-79
2021/10/04 06:13:21;;;;;;;0.80;0.50;;;14.20;99.90;;;;;;5044771;28;20983;-78
2021/10/04 06:15:49;;;;;;;1.00;0.60;;;14.30;99.90;;;;;;5058316;28;20767;-79
2021/10/04 06:18:18;;;;;;;0.80;0.40;;;14.40;99.90;;;;;;5062152;28;20421;-79
2021/10/04 06:20:46;;;;;;;0.90;0.70;;;14.30;99.90;;;;;;5058325;28;20419;-78
2021/10/04 06:23:15;;;;;;;1.10;0.70;;;14.30;99.90;;;;;;5064685;28;20481;-79
2021/10/04 06:25:44;;;;;;;0.80;0.50;;;14.30;99.90;;;;;;5047216;28;20434;-78
2021/10/04 06:28:13;;;;;;;2.40;1.37;;;14.40;99.90;;;;;;5083586;22;20569;-79
2021/10/04 06:30:41;;;;;;;0.90;0.70;;;14.40;99.90;;;;;;5061163;28;20446;-77
2021/10/04 06:33:09;;;;;;;1.00;0.60;;;14.50;99.90;;;;;;5063632;28;20459;-77
2021/10/04 06:35:38;;;;;;;2.10;1.90;;;14.50;99.90;;;;;;5069893;28;20431;-78
2021/10/04 06:38:06;;;;;;;0.90;0.60;;;14.50;99.90;;;;;;5071721;28;20459;-78
2021/10/04 06:40:34;;;;;;;0.90;0.60;;;14.60;99.90;;;;;;5068242;28;20424;-79
2021/10/04 06:43:04;;;;;;;1.33;0.93;;;14.60;99.90;;;;;;5066816;28;20463;-78
2021/10/04 06:45:32;;;;;;;1.00;0.50;;;14.60;99.90;;;;;;5064022;28;20789;-77
2021/10/04 06:48:00;;;;;;;3.03;1.30;;;14.70;99.90;;;;;;5064888;28;20414;-79
2021/10/04 06:50:28;;;;;;;1.00;0.50;;;14.70;99.90;;;;;;5065983;28;20433;-79
2021/10/04 06:52:56;;;;;;;0.80;0.50;;;14.70;99.90;;;;;;5062648;28;20438;-79
2021/10/04 06:55:24;;;;;;;1.00;0.60;;;14.70;99.90;;;;;;5062587;28;20994;-77
2021/10/04 06:57:52;;;;;;;1.33;0.90;;;14.70;99.90;;;;;;5059216;28;20481;-78
2021/10/04 07:00:22;;;;;;;0.83;0.50;;;14.90;99.90;;;;;;5058558;28;20391;-78
2021/10/04 07:02:51;;;;;;;0.80;0.40;;;14.80;99.90;;;;;;5056094;28;20499;-79
2021/10/04 07:05:22;;;;;;;0.80;0.50;;;14.90;99.90;;;;;;5055754;28;20991;-78
2021/10/04 07:07:51;;;;;;;0.80;0.50;;;14.80;99.90;;;;;;5057109;28;20443;-79
2021/10/04 07:10:19;;;;;;;1.73;0.80;;;14.80;99.90;;;;;;5056189;28;20403;-78
2021/10/04 07:12:48;;;;;;;0.90;0.67;;;14.80;99.90;;;;;;5055598;28;20394;-78
2021/10/04 07:15:17;;;;;;;0.80;0.50;;;14.90;99.90;;;;;;5055545;28;20700;-77
2021/10/04 07:17:47;;;;;;;0.90;0.50;;;14.90;99.90;;;;;;5053405;28;20425;-78
2021/10/04 07:20:15;;;;;;;0.90;0.60;;;14.90;99.90;;;;;;5055005;28;20439;-78
2021/10/04 07:22:43;;;;;;;1.00;0.60;;;15.00;99.90;;;;;;5055173;28;20422;-80
2021/10/04 07:25:12;;;;;;;0.83;0.50;;;15.00;99.90;;;;;;5059478;28;20378;-79
2021/10/04 07:27:41;;;;;;;0.93;0.60;;;15.10;99.90;;;;;;5056938;28;20429;-79
2021/10/04 07:30:11;;;;;;;2.30;1.53;;;15.20;99.90;;;;;;5072114;28;20477;-78
2021/10/04 07:32:39;;;;;;;0.80;0.50;;;15.00;99.90;;;;;;5073693;28;20405;-80
2021/10/04 07:35:09;;;;;;;1.63;1.20;;;15.00;99.90;;;;;;5073191;28;20400;-78
2021/10/04 07:37:37;;;;;;;1.97;0.93;;;15.10;99.90;;;;;;5064876;28;20422;-79
2021/10/04 07:40:06;;;;;;;1.00;0.70;;;15.10;99.90;;;;;;5060240;28;20434;-78
2021/10/04 07:42:35;;;;;;;1.40;1.30;;;15.00;99.90;;;;;;5058397;28;20443;-77
2021/10/04 07:45:04;;;;;;;2.40;0.80;;;15.00;99.90;;;;;;5054689;28;20482;-78
2021/10/04 07:47:32;;;;;;;1.13;1.03;;;15.20;99.90;;;;;;5058205;28;20538;-79
2021/10/04 07:50:00;;;;;;;3.03;0.80;;;15.10;99.90;;;;;;5058688;28;20413;-79
2021/10/04 07:52:30;;;;;;;1.10;0.63;;;15.10;99.90;;;;;;5058485;28;20427;-79
2021/10/04 07:54:59;;;;;;;1.03;0.83;;;15.20;99.90;;;;;;5059132;28;20392;-81
2021/10/04 07:57:29;;;;;;;0.83;0.50;;;15.30;99.90;;;;;;5046081;28;20455;-80
2021/10/04 07:59:58;;;;;;;0.90;0.50;;;15.50;99.90;;;;;;5039690;28;20916;-78
2021/10/04 08:02:26;;;;;;;0.90;0.50;;;15.70;99.90;;;;;;5038713;28;20406;-79
2021/10/04 08:04:54;;;;;;;1.10;0.73;;;15.90;99.90;;;;;;5037954;28;20488;-79
2021/10/04 08:07:22;;;;;;;0.90;0.50;;;16.00;99.90;;;;;;5038679;28;20929;-78
2021/10/04 08:09:51;;;;;;;1.47;1.10;;;16.00;99.90;;;;;;5038630;28;20407;-81
2021/10/04 08:12:23;;;;;;;1.50;0.60;;;16.20;99.90;;;;;;5037259;28;20944;-78
2021/10/04 08:14:51;;;;;;;0.97;0.60;;;16.40;99.90;;;;;;5037295;28;20402;-80
2021/10/04 08:17:19;;;;;;;0.90;0.60;;;16.70;99.90;;;;;;5038388;28;20482;-78
2021/10/04 08:19:47;;;;;;;0.93;0.60;;;16.80;99.90;;;;;;5038487;28;20432;-80
2021/10/04 08:22:15;;;;;;;1.00;0.63;;;16.70;99.90;;;;;;5039744;28;20391;-78
2021/10/04 08:24:44;;;;;;;0.90;0.50;;;16.60;99.90;;;;;;5040976;28;20471;-79
2021/10/04 08:27:13;;;;;;;0.90;0.50;;;16.40;99.90;;;;;;5042803;28;20430;-80
2021/10/04 08:29:41;;;;;;;0.90;0.50;;;16.20;99.90;;;;;;5045945;28;20430;-80
2021/10/04 08:32:09;;;;;;;0.90;0.40;;;16.10;99.90;;;;;;5047037;28;20406;-80
2021/10/04 08:34:38;;;;;;;0.90;0.60;;;15.90;99.90;;;;;;5050418;28;20458;-78
2021/10/04 08:37:06;;;;;;;0.90;0.50;;;15.90;99.90;;;;;;5049559;28;20422;-78
2021/10/04 08:39:34;;;;;;;0.90;0.60;;;15.90;99.90;;;;;;5049641;28;20439;-77
2021/10/04 08:42:03;;;;;;;0.90;0.50;;;15.90;99.90;;;;;;5049231;28;20428;-79
2021/10/04 08:44:32;;;;;;;0.90;0.60;;;15.90;99.90;;;;;;5051622;28;20529;-79
2021/10/04 08:47:00;;;;;;;1.00;0.57;;;15.90;99.90;;;;;;5047810;28;20418;-79
2021/10/04 08:49:33;;;;;;;0.90;0.50;;;15.90;99.90;;;;;;5047730;28;20415;-79
2021/10/04 08:52:02;;;;;;;0.90;0.50;;;15.80;99.90;;;;;;5046397;28;20873;-79
2021/10/04 08:54:30;;;;;;;0.90;0.50;;;15.80;99.90;;;;;;5039195;28;20527;-78
2021/10/04 08:56:59;;;;;;;1.00;0.60;;;15.80;99.90;;;;;;5038944;28;20414;-77
2021/10/04 08:59:27;;;;;;;1.77;0.60;;;15.80;99.90;;;;;;5038049;28;20410;-79
2021/10/04 09:02:23;;;;;;;1.00;0.60;;;15.80;99.90;;;;;;5038816;28;20391;-79
2021/10/04 09:05:08;;;;;;;0.90;0.50;;;15.50;99.90;;;;;;5038182;28;20545;-78
2021/10/04 09:07:41;;;;;;;0.90;0.60;;;15.60;99.90;;;;;;5044199;28;20438;-78
2021/10/04 09:10:12;;;;;;;0.90;0.50;;;15.50;99.90;;;;;;5047505;28;20436;-79
2021/10/04 09:12:46;;;;;;;1.07;0.63;;;15.50;99.90;;;;;;5050943;28;20402;-77
2021/10/04 09:15:30;;;;;;;1.00;0.70;;;15.50;99.90;;;;;;5050688;28;20413;-80
2021/10/04 09:18:01;;;;;;;1.53;1.17;;;15.50;99.90;;;;;;5048260;28;20446;-80
2021/10/04 09:20:48;;;;;;;0.90;0.53;;;15.70;99.90;;;;;;5041066;28;20899;-78
2021/10/04 09:23:56;;;;;;;0.90;0.80;;;15.50;99.90;;;;;;5042652;28;20433;-79
2021/10/04 09:26:37;;;;;;;1.00;0.60;;;15.50;99.90;;;;;;4984503;28;20423;-78
2021/10/04 09:29:09;;;;;;;1.00;0.50;;;15.40;99.90;;;;;;4967574;28;20441;-78
2021/10/04 09:31:42;;;;;;;0.90;0.50;;;15.50;99.90;;;;;;5024227;28;20506;-78
2021/10/04 09:34:15;;;;;;;0.90;0.50;;;15.70;99.90;;;;;;5051334;28;20413;-79
2021/10/04 09:36:45;;;;;;;1.00;0.60;;;15.70;99.90;;;;;;5070401;28;20451;-79
2021/10/04 09:39:23;;;;;;;0.83;0.50;;;15.70;99.90;;;;;;5063897;28;20440;-79
2021/10/04 09:42:06;;;;;;;1.10;0.77;;;15.70;99.90;;;;;;5065503;28;20409;-79
2021/10/04 09:44:55;;;;;;;0.90;0.50;;;15.70;99.90;;;;;;5064139;28;20440;-79
2021/10/04 09:47:29;;;;;;;0.90;0.50;;;15.80;99.90;;;;;;5065293;28;20420;-79
2021/10/04 09:50:02;;;;;;;1.20;0.80;;;15.70;99.90;;;;;;5062602;28;20459;-80
2021/10/04 09:52:38;;;;;;;1.00;0.70;;;15.60;99.90;;;;;;5061122;28;20434;-79
2021/10/04 09:55:22;;;;;;;1.83;1.13;;;15.50;99.90;;;;;;5060155;28;20431;-79
2021/10/04 09:57:59;;;;;;;1.00;0.73;;;15.50;99.90;;;;;;5058665;28;20846;-80
2021/10/04 10:00:29;;;;;;;0.80;0.50;;;15.50;99.90;;;;;;5060931;28;20477;-79
2021/10/04 10:02:58;;;;;;;0.90;0.50;;;15.60;99.90;;;;;;5059277;28;20967;-79
2021/10/04 10:05:29;;;;;;;0.80;0.40;;;15.60;99.90;;;;;;5052565;28;20453;-79
2021/10/04 10:07:58;;;;;;;0.80;0.43;;;15.50;99.90;;;;;;5046336;28;20430;-78
2021/10/04 10:10:43;;;;;;;1.03;0.70;;;15.60;99.90;;;;;;5046669;28;20436;-78
2021/10/04 10:13:13;;;;;;;0.90;0.70;;;15.80;99.90;;;;;;5048731;28;20424;-77
2021/10/04 10:15:45;;;;;;;0.80;0.50;;;16.00;99.90;;;;;;5056089;28;20461;-78
2021/10/04 10:18:22;;;;;;;1.33;0.70;;;16.10;99.90;;;;;;5060283;28;20435;-79
2021/10/04 10:20:59;;;;;;;0.90;0.63;;;16.00;99.90;;;;;;5059831;28;20397;-79
2021/10/04 10:23:45;;;;;;;1.20;0.70;;;16.00;99.90;;;;;;5059032;28;20789;-80
2021/10/04 10:26:44;;;;;;;0.90;0.50;;;16.10;99.90;;;;;;5060445;28;20457;-79
2021/10/04 10:29:29;;;;;;;0.90;0.60;;;16.40;99.90;;;;;;4998164;28;20421;-79
2021/10/04 10:32:21;;;;;;;0.90;0.57;;;16.70;99.90;;;;;;5054192;28;20439;-78
2021/10/04 10:34:56;;;;;;;1.07;0.60;;;16.80;99.90;;;;;;5061163;28;20385;-79
2021/10/04 10:37:46;;;;;;;1.00;0.63;;;16.70;99.90;;;;;;5060738;28;20541;-80
2021/10/04 10:40:16;;;;;;;0.90;0.50;;;16.70;99.90;;;;;;5061142;28;20404;-80
2021/10/04 10:43:00;;;;;;;1.00;0.60;;;16.80;99.90;;;;;;5060003;28;20406;-79
2021/10/04 10:45:42;;;;;;;0.90;0.40;;;16.70;99.90;;;;;;5061374;28;20444;-79
2021/10/04 10:48:12;;;;;;;1.43;0.70;;;16.70;99.90;;;;;;5060840;28;20999;-80
2021/10/04 10:50:42;;;;;;;1.00;0.57;;;16.60;99.90;;;;;;5061311;28;20437;-77
2021/10/04 10:53:16;;;;;;;1.13;0.90;;;16.50;99.90;;;;;;5055339;28;20398;-79
2021/10/04 10:55:46;;;;;;;1.00;0.60;;;16.40;99.90;;;;;;5045845;28;20428;-78
2021/10/04 10:58:15;;;;;;;1.00;0.63;;;16.30;99.90;;;;;;5039717;28;20962;-81
2021/10/04 11:00:46;;;;;;;0.90;0.40;;;16.20;99.90;;;;;;5039227;28;20435;-80
2021/10/04 11:03:18;;;;;;;1.10;0.70;;;16.20;99.90;;;;;;5039178;28;20828;-79
2021/10/04 11:05:58;;;;;;;0.90;0.50;;;16.20;99.90;;;;;;5039094;28;20911;-78
2021/10/04 11:08:58;;;;;;;2.60;0.70;;;16.20;99.90;;;;;;5039193;28;20432;-80
2021/10/04 11:11:30;;;;;;;1.20;0.80;;;16.20;99.90;;;;;;5038358;28;20802;-79
2021/10/04 11:14:19;;;;;;;0.90;0.50;;;16.30;99.90;;;;;;5040624;28;20928;-80
2021/10/04 11:17:01;;;;;;;0.90;0.50;;;16.40;99.90;;;;;;5038256;28;20865;-80
2021/10/04 11:19:35;;;;;;;3.37;0.83;;;16.30;99.90;;;;;;5037725;28;20746;-82
2021/10/04 11:22:06;;;;;;;0.90;0.60;;;16.30;99.90;;;;;;5037701;28;20410;-81
2021/10/04 11:24:38;;;;;;;0.90;0.50;;;16.20;99.90;;;;;;5037654;28;20495;-81
2021/10/04 11:27:07;;;;;;;0.90;0.60;;;16.20;99.90;;;;;;5037244;28;20813;-80
2021/10/04 11:29:36;;;;;;;0.90;0.50;;;16.40;99.90;;;;;;5037520;28;20395;-81
2021/10/04 11:32:16;;;;;;;2.13;1.57;;;16.40;99.90;;;;;;5043274;28;20468;-80
2021/10/04 11:34:44;;;;;;;1.10;0.60;;;16.50;99.90;;;;;;5030341;28;20431;-80
2021/10/04 11:37:12;;;;;;;0.90;0.50;;;16.50;99.90;;;;;;5038916;28;20418;-80
2021/10/04 11:39:44;;;;;;;0.90;0.70;;;16.50;99.90;;;;;;5039692;28;20917;-79
2021/10/04 11:42:13;;;;;;;0.97;0.50;;;16.50;99.90;;;;;;5039907;28;20445;-79
2021/10/04 11:44:42;;;;;;;1.00;0.60;;;16.40;99.90;;;;;;5040076;28;20424;-80
2021/10/04 11:47:12;;;;;;;1.00;0.60;;;16.40;99.90;;;;;;5038896;28;20486;-79
2021/10/04 11:49:43;;;;;;;1.10;0.60;;;16.40;99.90;;;;;;5038927;28;20462;-81
2021/10/04 11:52:15;;;;;;;0.90;0.70;;;16.30;99.90;;;;;;5038478;28;20431;-80
2021/10/04 11:54:48;;;;;;;1.30;0.80;;;16.20;99.90;;;;;;5039259;28;20412;-80
2021/10/04 11:57:29;;;;;;;0.90;0.50;;;16.10;99.90;;;;;;5038738;28;20440;-79
2021/10/04 12:00:01;;;;;;;1.20;0.60;;;15.90;99.90;;;;;;5036529;28;21042;-80
2021/10/04 12:02:40;;;;;;;1.10;0.80;;;16.00;99.90;;;;;;5038118;28;20424;-79
2021/10/04 12:05:14;;;;;;;0.90;0.60;;;16.20;99.90;;;;;;5037892;28;20422;-79
2021/10/04 12:08:04;;;;;;;0.93;0.53;;;16.10;99.90;;;;;;5037786;28;20452;-79
2021/10/04 12:10:43;;;;;;;1.00;0.87;;;15.90;99.90;;;;;;5038062;28;20523;-79
2021/10/04 12:13:12;;;;;;;1.60;1.00;;;15.80;99.90;;;;;;5037397;28;20473;-79
2021/10/04 12:15:41;;;;;;;1.10;0.60;;;15.90;99.90;;;;;;5037307;28;20452;-79
2021/10/04 12:18:13;;;;;;;0.90;0.50;;;15.80;99.90;;;;;;5049916;28;20438;-80
2021/10/04 12:20:41;;;;;;;0.90;0.60;;;15.80;99.90;;;;;;5057847;28;20423;-79
2021/10/04 12:23:18;;;;;;;1.20;0.80;;;15.80;99.90;;;;;;5057475;28;20431;-79
2021/10/04 12:25:49;;;;;;;1.10;0.70;;;16.00;99.90;;;;;;5057872;28;20455;-80
2021/10/04 12:28:20;;;;;;;1.10;0.70;;;16.10;99.90;;;;;;5083937;22;20459;-80
2021/10/04 12:30:51;;;;;;;0.90;0.50;;;16.20;99.90;;;;;;5069390;28;20780;-81
2021/10/04 12:33:22;;;;;;;0.90;0.63;;;16.10;99.90;;;;;;5060176;28;20495;-78
2021/10/04 12:35:51;;;;;;;1.93;1.73;;;16.00;99.90;;;;;;5065179;28;20417;-81
2021/10/04 12:38:20;;;;;;;1.30;0.97;;;16.00;99.90;;;;;;5066014;28;20893;-79
2021/10/04 12:41:01;;;;;;;1.43;0.70;;;15.90;99.90;;;;;;5064999;28;20423;-79
2021/10/04 12:43:31;;;;;;;0.90;0.60;;;15.80;99.90;;;;;;5040484;28;20414;-78
2021/10/04 12:46:02;;;;;;;1.80;1.00;;;15.90;99.90;;;;;;5047010;28;20439;-78
2021/10/04 12:48:39;;;;;;;0.90;0.50;;;15.80;99.90;;;;;;5047914;28;20441;-79
2021/10/04 12:51:09;;;;;;;1.53;1.43;;;15.70;99.90;;;;;;5048101;28;20470;-79
2021/10/04 12:53:45;;;;;;;1.17;1.07;;;15.70;99.90;;;;;;5055728;28;20411;-80
2021/10/04 12:56:23;;;;;;;1.20;0.70;;;15.70;99.90;;;;;;5053634;28;20416;-79
2021/10/04 12:59:04;;;;;;;1.10;0.87;;;15.70;99.90;;;;;;5050366;28;20414;-80
2021/10/04 13:01:34;;;;;;;1.60;1.40;;;15.60;99.90;;;;;;5027519;28;20780;-79
2021/10/04 13:04:07;;;;;;;0.90;0.50;;;15.60;99.90;;;;;;5045174;28;20394;-81
2021/10/04 13:06:37;;;;;;;5.17;1.07;;;15.40;99.90;;;;;;5043067;28;20946;-80